Time;durP1;ratioP1;P1;durP2;ratioP2;P2;SDS_P1;SDS_P2;PMS_P1;PMS_P2;Temp;Humidity;BMP_temperature;BMP_pressure;BME280_temperature;BME280_humidity;BME280_pressure;Samples;Min_cycle;Max_cycle;Signal;HPM_P1;HPM_P2
2021/03/24 00:01:19;;;;;;;30.37;18.07;;;6.30;71.70;;;;;;5074295;28;20962;-73
2021/03/24 00:03:44;;;;;;;28.33;16.40;;;6.20;71.70;;;;;;5074179;28;20641;-72
2021/03/24 00:06:11;;;;;;;29.07;16.63;;;6.20;71.70;;;;;;5073517;28;20489;-73
2021/03/24 00:08:37;;;;;;;33.07;19.00;;;6.20;71.70;;;;;;5053783;28;20703;-72
2021/03/24 00:11:05;;;;;;;31.93;18.63;;;6.20;71.80;;;;;;5053834;28;20458;-73
2021/03/24 00:13:31;;;;;;;36.17;18.83;;;6.20;71.90;;;;;;5069266;28;20461;-73
2021/03/24 00:15:57;;;;;;;30.80;16.50;;;6.10;71.80;;;;;;5073472;28;20434;-73
2021/03/24 00:18:22;;;;;;;29.20;16.80;;;6.10;71.90;;;;;;5054814;28;20180;-72
2021/03/24 00:20:49;;;;;;;36.00;17.43;;;6.10;72.10;;;;;;5053730;28;20424;-73
2021/03/24 00:23:15;;;;;;;39.20;18.70;;;6.10;72.20;;;;;;5056430;28;20223;-73
2021/03/24 00:25:41;;;;;;;36.90;18.33;;;6.00;72.30;;;;;;5074294;28;20447;-73
2021/03/24 00:28:08;;;;;;;30.50;16.30;;;6.00;72.50;;;;;;5061481;28;20258;-73
2021/03/24 00:30:37;;;;;;;26.43;15.40;;;6.00;72.60;;;;;;5053189;28;20401;-73
2021/03/24 00:33:03;;;;;;;30.67;17.90;;;6.00;72.80;;;;;;5053721;28;20432;-73
2021/03/24 00:35:28;;;;;;;29.10;17.10;;;5.90;72.70;;;;;;5053265;28;20412;-71
2021/03/24 00:37:55;;;;;;;36.03;17.47;;;5.90;72.70;;;;;;5067071;28;20430;-73
2021/03/24 00:40:28;;;;;;;33.70;18.63;;;5.90;72.70;;;;;;5072872;28;20419;-72
2021/03/24 00:42:54;;;;;;;32.27;17.60;;;5.90;72.70;;;;;;5073040;28;20462;-72
2021/03/24 00:45:20;;;;;;;34.90;18.57;;;5.90;72.80;;;;;;5073072;28;20477;-72
2021/03/24 00:47:46;;;;;;;31.47;17.17;;;5.90;72.80;;;;;;5072152;28;20427;-74
2021/03/24 00:50:20;;;;;;;36.17;18.00;;;5.80;72.70;;;;;;5071210;28;20257;-71
2021/03/24 00:52:46;;;;;;;29.93;16.07;;;5.80;72.70;;;;;;5054415;28;20436;-73
2021/03/24 00:55:13;;;;;;;29.03;17.47;;;5.80;72.70;;;;;;5052711;28;20412;-73
2021/03/24 00:57:39;;;;;;;25.47;16.40;;;5.80;72.70;;;;;;5062411;28;20446;-73
2021/03/24 01:00:26;;;;;;;28.60;17.87;;;5.80;72.60;;;;;;5070871;28;20431;-72
2021/03/24 01:02:51;;;;;;;33.47;17.90;;;5.80;72.60;;;;;;5072473;28;20446;-72
2021/03/24 01:05:19;;;;;;;36.00;16.70;;;5.80;72.70;;;;;;5071593;28;20530;-72
2021/03/24 01:07:45;;;;;;;31.97;15.23;;;5.80;72.60;;;;;;5041748;28;20243;-72
2021/03/24 01:10:14;;;;;;;35.53;17.83;;;5.70;72.60;;;;;;5052025;28;20400;-73
2021/03/24 01:12:39;;;;;;;33.33;17.40;;;5.70;72.90;;;;;;5052186;28;20464;-74
2021/03/24 01:15:07;;;;;;;30.93;17.97;;;5.70;73.00;;;;;;5051205;28;20463;-72
2021/03/24 01:17:32;;;;;;;32.40;15.90;;;5.70;73.10;;;;;;5050891;28;20174;-73
2021/03/24 01:19:58;;;;;;;35.20;17.20;;;5.70;73.20;;;;;;5052248;28;20939;-73
2021/03/24 01:22:24;;;;;;;34.47;15.90;;;5.60;73.10;;;;;;5052193;28;20513;-73
2021/03/24 01:24:50;;;;;;;30.17;17.33;;;5.60;73.30;;;;;;5053355;28;20185;-73
2021/03/24 01:27:16;;;;;;;34.03;18.03;;;5.60;73.50;;;;;;5051370;28;20257;-73
2021/03/24 01:29:41;;;;;;;29.53;18.00;;;5.60;73.60;;;;;;5052835;28;20432;-72
2021/03/24 01:32:07;;;;;;;26.00;15.23;;;5.50;73.60;;;;;;5058301;28;20190;-71
2021/03/24 01:34:33;;;;;;;29.20;17.30;;;5.50;73.60;;;;;;5034238;28;20222;-73
2021/03/24 01:36:59;;;;;;;32.67;15.33;;;5.50;73.80;;;;;;5042308;28;20469;-74
2021/03/24 01:39:24;;;;;;;29.47;17.30;;;5.40;73.80;;;;;;5070827;28;20169;-74
2021/03/24 01:41:50;;;;;;;30.03;17.13;;;5.40;73.90;;;;;;5069441;28;20216;-73
2021/03/24 01:44:16;;;;;;;32.37;17.27;;;5.40;74.10;;;;;;5035685;28;20202;-73
2021/03/24 01:46:43;;;;;;;33.43;17.67;;;5.40;74.30;;;;;;5056562;28;20169;-73
2021/03/24 01:49:27;;;;;;;34.40;17.67;;;5.30;74.20;;;;;;5070398;28;20298;-73
2021/03/24 01:52:00;;;;;;;37.63;17.60;;;5.30;74.40;;;;;;5070488;28;20485;-73
2021/03/24 01:54:36;;;;;;;27.63;14.77;;;5.30;74.40;;;;;;5036159;28;20485;-73
2021/03/24 01:57:11;;;;;;;32.43;16.07;;;5.30;74.40;;;;;;5045121;28;20499;-72
2021/03/24 01:59:37;;;;;;;39.80;18.10;;;5.30;74.30;;;;;;5062331;28;20442;-72
2021/03/24 02:02:11;;;;;;;30.50;16.40;;;5.30;74.20;;;;;;5051625;28;20408;-72
2021/03/24 02:04:37;;;;;;;28.97;16.97;;;5.30;74.30;;;;;;5051712;28;20549;-72
2021/03/24 02:07:20;;;;;;;31.67;17.20;;;5.30;74.30;;;;;;5058663;28;20457;-74
2021/03/24 02:10:05;;;;;;;36.77;18.37;;;5.20;74.30;;;;;;5071354;28;20162;-74
2021/03/24 02:12:39;;;;;;;28.23;17.73;;;5.20;74.40;;;;;;5049529;28;20420;-72
2021/03/24 02:15:23;;;;;;;33.53;16.70;;;5.20;74.40;;;;;;5040644;28;20416;-72
2021/03/24 02:17:51;;;;;;;32.40;18.10;;;5.20;74.50;;;;;;5051721;28;20400;-72
2021/03/24 02:20:34;;;;;;;32.37;17.60;;;5.20;74.50;;;;;;5051711;28;20481;-73
2021/03/24 02:23:22;;;;;;;29.67;17.40;;;5.20;74.60;;;;;;5049619;28;20436;-74
2021/03/24 02:25:55;;;;;;;38.83;17.97;;;5.20;74.60;;;;;;5056515;28;20815;-73
2021/03/24 02:28:22;;;;;;;57.57;19.60;;;5.10;74.50;;;;;;5050794;28;20408;-73
2021/03/24 02:30:49;;;;;;;36.30;16.77;;;5.10;74.50;;;;;;5050952;28;20698;-74
2021/03/24 02:33:26;;;;;;;39.93;18.37;;;5.10;74.50;;;;;;5049340;28;20439;-73
2021/03/24 02:35:56;;;;;;;34.20;18.40;;;5.00;74.60;;;;;;5051741;28;20459;-73
2021/03/24 02:38:24;;;;;;;35.07;18.97;;;5.00;75.60;;;;;;5029661;28;20427;-72
2021/03/24 02:40:52;;;;;;;34.80;17.00;;;5.00;74.80;;;;;;5029768;28;20828;-72
2021/03/24 02:43:19;;;;;;;33.37;15.80;;;5.00;74.90;;;;;;5034669;28;20452;-73
2021/03/24 02:45:47;;;;;;;34.17;17.00;;;5.00;75.00;;;;;;5058286;28;20600;-74
2021/03/24 02:48:30;;;;;;;26.37;17.60;;;5.00;74.90;;;;;;5088035;28;20603;-75
2021/03/24 02:50:58;;;;;;;29.70;17.00;;;5.00;75.00;;;;;;5088667;28;20413;-72
2021/03/24 02:53:26;;;;;;;33.80;17.20;;;5.00;75.00;;;;;;5086871;28;20935;-74
2021/03/24 02:55:55;;;;;;;38.60;18.17;;;5.00;75.10;;;;;;5087696;28;20433;-73
2021/03/24 02:58:21;;;;;;;32.70;16.63;;;4.90;74.90;;;;;;5086449;28;20589;-72
2021/03/24 03:00:48;;;;;;;32.70;17.87;;;4.90;74.90;;;;;;5088371;28;20597;-74
2021/03/24 03:03:25;;;;;;;32.90;17.07;;;4.90;74.80;;;;;;5086767;28;20189;-73
2021/03/24 03:05:56;;;;;;;37.50;18.87;;;4.90;74.80;;;;;;5069372;28;20422;-73
2021/03/24 03:08:28;;;;;;;33.47;16.27;;;4.90;74.90;;;;;;5068028;28;20554;-74
2021/03/24 03:11:10;;;;;;;26.70;15.50;;;4.90;75.10;;;;;;5067936;28;20477;-72
2021/03/24 03:13:58;;;;;;;30.63;16.90;;;4.80;75.00;;;;;;5067092;28;20522;-72
2021/03/24 03:16:43;;;;;;;35.83;16.70;;;4.80;75.00;;;;;;5079892;28;20575;-73
2021/03/24 03:19:20;;;;;;;36.30;18.83;;;4.80;75.10;;;;;;5087785;28;20478;-74
2021/03/24 03:21:52;;;;;;;31.97;17.50;;;4.70;75.10;;;;;;5086443;28;20411;-73
2021/03/24 03:24:20;;;;;;;32.13;17.27;;;4.70;75.30;;;;;;5087421;28;20989;-74
2021/03/24 03:26:49;;;;;;;31.20;15.80;;;4.70;75.30;;;;;;5070135;28;20464;-73
2021/03/24 03:29:17;;;;;;;37.00;18.40;;;4.70;75.50;;;;;;5049086;28;20411;-72
2021/03/24 03:31:48;;;;;;;37.53;19.50;;;4.60;75.50;;;;;;5067939;28;20506;-74
2021/03/24 03:34:17;;;;;;;32.03;16.30;;;4.60;75.60;;;;;;5085897;28;20445;-73
2021/03/24 03:36:46;;;;;;;33.43;17.10;;;4.60;75.70;;;;;;5074903;28;20454;-73
2021/03/24 03:39:16;;;;;;;33.07;17.37;;;4.60;75.80;;;;;;5067739;28;20411;-72
2021/03/24 03:41:43;;;;;;;38.60;17.30;;;4.60;75.90;;;;;;5067825;28;20749;-73
2021/03/24 03:44:10;;;;;;;33.57;16.83;;;4.60;75.90;;;;;;5066926;28;20962;-72
2021/03/24 03:46:39;;;;;;;33.70;17.33;;;4.50;76.00;;;;;;5078792;28;20461;-73
2021/03/24 03:49:05;;;;;;;28.10;15.73;;;4.50;76.00;;;;;;5088784;28;20945;-73
2021/03/24 03:51:52;;;;;;;33.00;18.17;;;4.50;76.10;;;;;;5090161;28;20464;-74
2021/03/24 03:54:24;;;;;;;27.73;15.87;;;4.50;76.20;;;;;;5080572;28;20446;-72
2021/03/24 03:56:52;;;;;;;36.70;18.30;;;4.50;76.20;;;;;;5082308;28;20954;-73
2021/03/24 03:59:50;;;;;;;30.70;17.43;;;4.50;76.30;;;;;;5060170;28;20469;-72
2021/03/24 04:02:19;;;;;;;33.70;15.97;;;4.50;76.50;;;;;;5060999;28;20444;-75
2021/03/24 04:04:56;;;;;;;32.20;16.80;;;4.40;76.30;;;;;;5061036;28;20416;-73
2021/03/24 04:07:32;;;;;;;28.50;16.73;;;4.40;76.30;;;;;;5061553;28;20459;-73
2021/03/24 04:10:01;;;;;;;31.00;15.63;;;4.40;76.50;;;;;;5062642;28;20399;-72
2021/03/24 04:12:29;;;;;;;29.20;17.23;;;4.40;76.60;;;;;;5056870;28;20858;-74
2021/03/24 04:14:56;;;;;;;32.33;17.50;;;4.40;77.40;;;;;;5052685;28;20428;-74
2021/03/24 04:17:33;;;;;;;31.83;17.17;;;4.40;76.70;;;;;;5072931;28;20434;-74
2021/03/24 04:20:04;;;;;;;30.77;16.40;;;4.40;76.60;;;;;;5073193;28;20407;-72
2021/03/24 04:22:31;;;;;;;39.93;17.50;;;4.40;76.60;;;;;;5073321;28;20408;-73
2021/03/24 04:24:58;;;;;;;35.67;17.30;;;4.40;76.80;;;;;;5069797;28;20403;-73
2021/03/24 04:27:31;;;;;;;35.47;17.30;;;4.40;76.70;;;;;;5052455;28;21023;-73
2021/03/24 04:30:01;;;;;;;34.17;17.47;;;4.30;76.70;;;;;;5053559;28;20439;-73
2021/03/24 04:32:27;;;;;;;29.37;17.50;;;4.30;76.80;;;;;;5053239;28;20454;-73
2021/03/24 04:34:53;;;;;;;29.67;15.97;;;4.30;77.00;;;;;;5055385;28;20389;-72
2021/03/24 04:37:37;;;;;;;26.87;16.13;;;4.30;77.00;;;;;;5073231;28;20407;-72
2021/03/24 04:40:06;;;;;;;32.70;18.20;;;4.30;77.20;;;;;;5054411;28;20694;-73
2021/03/24 04:42:42;;;;;;;38.37;17.10;;;4.20;77.10;;;;;;5054326;28;20905;-74
2021/03/24 04:45:35;;;;;;;33.57;16.80;;;4.20;77.20;;;;;;5053010;28;20491;-73
2021/03/24 04:48:05;;;;;;;31.60;15.80;;;4.20;77.40;;;;;;5052975;28;20513;-73
2021/03/24 04:50:36;;;;;;;36.97;15.57;;;4.10;77.40;;;;;;5069128;28;20511;-73
2021/03/24 04:53:06;;;;;;;28.50;16.00;;;4.10;77.60;;;;;;5068351;28;20438;-73
2021/03/24 04:55:34;;;;;;;31.40;16.30;;;4.10;77.70;;;;;;5051776;28;20408;-73
2021/03/24 04:58:04;;;;;;;31.10;16.93;;;4.10;77.90;;;;;;5053019;28;20442;-72
2021/03/24 05:00:46;;;;;;;39.07;17.60;;;4.10;77.90;;;;;;5045430;28;20952;-73
2021/03/24 05:03:16;;;;;;;29.70;15.90;;;4.10;78.00;;;;;;5051542;28;20801;-72
2021/03/24 05:05:50;;;;;;;36.67;19.37;;;4.10;78.80;;;;;;5060180;28;20426;-74
2021/03/24 05:08:34;;;;;;;34.20;17.90;;;4.10;78.10;;;;;;5072878;28;20504;-73
2021/03/24 05:11:04;;;;;;;35.40;17.87;;;4.00;78.00;;;;;;5051128;28;20412;-73
2021/03/24 05:13:35;;;;;;;29.03;16.33;;;4.10;78.20;;;;;;5062911;28;20431;-73
2021/03/24 05:16:07;;;;;;;33.30;16.83;;;4.00;78.10;;;;;;5064014;28;20414;-73
2021/03/24 05:18:34;;;;;;;36.23;16.90;;;4.00;78.10;;;;;;5072565;28;20725;-73
2021/03/24 05:21:07;;;;;;;32.10;17.50;;;4.00;78.10;;;;;;5065620;28;20750;-73
2021/03/24 05:23:34;;;;;;;36.97;16.50;;;4.00;78.20;;;;;;5042727;28;20448;-72
2021/03/24 05:26:02;;;;;;;46.37;17.73;;;4.00;78.30;;;;;;5052644;28;20408;-74
2021/03/24 05:28:42;;;;;;;34.87;17.37;;;4.00;78.20;;;;;;5051379;28;20546;-74
2021/03/24 05:31:14;;;;;;;29.50;16.70;;;4.00;78.40;;;;;;5063639;28;20883;-72
2021/03/24 05:33:46;;;;;;;36.30;18.20;;;4.00;78.10;;;;;;5061005;28;20451;-73
2021/03/24 05:36:36;;;;;;;31.63;15.83;;;4.00;78.30;;;;;;5071172;28;20502;-74
2021/03/24 05:39:23;;;;;;;41.27;17.70;;;4.00;78.40;;;;;;5070504;28;20522;-74
2021/03/24 05:41:55;;;;;;;34.00;18.10;;;4.00;79.00;;;;;;5062103;28;20430;-74
2021/03/24 05:44:21;;;;;;;38.87;16.70;;;4.00;78.10;;;;;;5055089;28;20451;-73
2021/03/24 05:47:23;;;;;;;32.20;15.60;;;4.00;77.90;;;;;;5055767;28;20877;-74
2021/03/24 05:49:58;;;;;;;32.37;16.00;;;4.00;77.70;;;;;;5062640;28;20173;-74
2021/03/24 05:52:42;;;;;;;33.33;15.57;;;4.00;77.60;;;;;;5065529;28;20411;-72
2021/03/24 05:55:20;;;;;;;27.10;15.27;;;4.10;77.60;;;;;;5055397;28;20407;-72
2021/03/24 05:57:54;;;;;;;53.33;18.67;;;4.10;77.50;;;;;;5074874;28;20415;-73
2021/03/24 06:00:32;;;;;;;37.57;17.87;;;4.10;77.30;;;;;;5043736;28;20430;-74
2021/03/24 06:03:29;;;;;;;29.40;16.33;;;4.20;77.20;;;;;;5065960;28;20424;-73
2021/03/24 06:06:29;;;;;;;34.63;16.80;;;4.20;76.90;;;;;;5060112;28;20761;-73
2021/03/24 06:09:24;;;;;;;35.23;16.90;;;4.30;76.70;;;;;;5019102;28;20432;-73
2021/03/24 06:11:59;;;;;;;29.17;16.17;;;4.40;76.60;;;;;;5067686;28;20443;-74
2021/03/24 06:15:01;;;;;;;40.17;16.53;;;4.40;76.30;;;;;;5072454;28;20479;-74
2021/03/24 06:18:00;;;;;;;34.40;15.83;;;4.50;76.10;;;;;;5071883;28;20459;-74
2021/03/24 06:21:04;;;;;;;34.00;15.67;;;4.60;75.60;;;;;;5067566;28;20416;-73
2021/03/24 06:24:04;;;;;;;31.33;15.83;;;4.70;75.40;;;;;;5037534;28;20444;-74
2021/03/24 06:27:04;;;;;;;27.90;15.63;;;4.80;74.90;;;;;;5049857;28;20448;-73
2021/03/24 06:30:01;;;;;;;34.77;18.20;;;4.80;74.30;;;;;;5069492;28;20411;-72
2021/03/24 06:33:05;;;;;;;30.67;16.90;;;4.90;73.90;;;;;;5041216;28;20477;-73
2021/03/24 06:36:03;;;;;;;31.60;15.73;;;5.00;73.70;;;;;;5051362;28;20407;-74
2021/03/24 06:38:41;;;;;;;36.97;17.40;;;5.10;73.60;;;;;;5050892;28;20423;-74
2021/03/24 06:41:18;;;;;;;27.43;15.27;;;5.20;73.00;;;;;;5059634;28;20920;-72
2021/03/24 06:44:17;;;;;;;37.50;16.30;;;5.20;72.90;;;;;;5065934;28;20440;-72
2021/03/24 06:46:51;;;;;;;27.53;15.13;;;5.30;72.30;;;;;;5034389;28;20517;-76
2021/03/24 06:49:27;;;;;;;28.73;15.20;;;5.40;71.70;;;;;;5053249;28;20412;-76
2021/03/24 06:52:05;;;;;;;33.57;16.47;;;5.50;71.80;;;;;;5065666;28;20776;-75
2021/03/24 06:55:16;;;;;;;31.60;15.27;;;5.60;71.40;;;;;;5071357;28;20428;-74
2021/03/24 06:57:57;;;;;;;36.73;17.17;;;5.70;70.40;;;;;;5069325;28;20948;-75
2021/03/24 07:01:00;;;;;;;34.13;16.83;;;5.80;70.50;;;;;;5069157;28;20513;-74
2021/03/24 07:04:02;;;;;;;32.53;17.10;;;5.90;70.50;;;;;;5068847;28;20485;-75
2021/03/24 07:06:40;;;;;;;31.57;17.10;;;6.10;70.10;;;;;;5070692;28;20450;-74
2021/03/24 07:09:42;;;;;;;39.40;16.33;;;6.20;69.10;;;;;;5069443;28;20423;-74
2021/03/24 07:12:16;;;;;;;39.20;17.10;;;6.30;68.50;;;;;;5053204;28;20419;-74
2021/03/24 07:15:01;;;;;;;34.63;15.33;;;6.40;68.00;;;;;;5051359;28;20424;-75
2021/03/24 07:17:37;;;;;;;37.83;17.70;;;6.50;67.70;;;;;;5053414;28;20446;-74
2021/03/24 07:20:41;;;;;;;30.93;15.83;;;6.60;67.50;;;;;;5069554;28;20406;-74
2021/03/24 07:23:39;;;;;;;31.37;16.13;;;6.70;67.20;;;;;;5051075;28;20527;-75
2021/03/24 07:26:15;;;;;;;29.53;18.27;;;6.80;66.10;;;;;;5028690;28;20452;-74
2021/03/24 07:29:03;;;;;;;35.33;16.33;;;6.80;66.00;;;;;;5051748;28;20415;-74
2021/03/24 07:31:53;;;;;;;41.87;17.83;;;7.00;66.30;;;;;;5064492;28;20427;-75
2021/03/24 07:35:10;;;;;;;31.20;15.13;;;7.10;65.60;;;;;;5061449;28;20440;-74
2021/03/24 07:37:55;;;;;;;36.30;17.77;;;7.20;64.90;;;;;;5037507;28;20426;-72
2021/03/24 07:40:46;;;;;;;27.33;16.37;;;7.40;64.10;;;;;;5076082;28;21074;-74
2021/03/24 07:43:32;;;;;;;25.70;15.97;;;7.60;64.20;;;;;;5078478;28;20419;-74
2021/03/24 07:46:32;;;;;;;31.63;16.27;;;8.70;63.30;;;;;;5079144;28;20411;-73
2021/03/24 07:49:14;;;;;;;38.23;15.83;;;9.90;58.30;;;;;;5062807;28;20518;-72
2021/03/24 07:51:57;;;;;;;26.67;15.67;;;10.80;55.90;;;;;;5058028;28;20411;-75
2021/03/24 07:54:49;;;;;;;31.70;17.50;;;11.90;53.60;;;;;;5057704;28;20420;-73
2021/03/24 07:57:36;;;;;;;31.33;16.33;;;13.00;52.00;;;;;;5056643;28;20430;-74
2021/03/24 08:00:26;;;;;;;28.57;16.37;;;13.90;49.60;;;;;;5069130;28;20455;-74
2021/03/24 08:02:59;;;;;;;29.80;16.40;;;15.10;47.30;;;;;;5059999;28;20486;-75
2021/03/24 08:05:56;;;;;;;38.63;20.50;;;15.90;45.30;;;;;;5058064;28;20925;-73
2021/03/24 08:08:25;;;;;;;37.70;20.33;;;16.60;43.50;;;;;;5070188;28;20554;-73
2021/03/24 08:11:05;;;;;;;34.13;18.50;;;17.20;42.30;;;;;;5059628;28;20424;-74
2021/03/24 08:13:54;;;;;;;32.53;19.17;;;17.70;41.10;;;;;;5058088;28;20412;-74
2021/03/24 08:16:30;;;;;;;25.53;16.60;;;18.10;39.90;;;;;;5057418;28;20901;-74
2021/03/24 08:19:28;;;;;;;33.57;18.33;;;18.50;39.40;;;;;;5069343;28;20410;-74
2021/03/24 08:22:21;;;;;;;34.40;17.53;;;19.00;38.20;;;;;;5071219;28;20412;-74
2021/03/24 08:25:00;;;;;;;33.00;17.80;;;19.30;37.30;;;;;;5066676;28;20432;-72
2021/03/24 08:27:36;;;;;;;29.30;17.60;;;19.70;37.20;;;;;;5075935;28;20474;-75
2021/03/24 08:30:22;;;;;;;29.60;16.53;;;20.00;35.90;;;;;;5066156;28;20418;-74
2021/03/24 08:33:06;;;;;;;29.70;19.20;;;20.20;35.30;;;;;;5056569;28;20496;-73
2021/03/24 08:35:50;;;;;;;33.27;18.00;;;20.30;35.30;;;;;;5071187;28;20415;-75
2021/03/24 08:38:21;;;;;;;29.70;19.23;;;20.40;35.70;;;;;;5076037;28;20437;-74
2021/03/24 08:41:07;;;;;;;31.03;19.17;;;20.80;34.00;;;;;;5065825;28;20947;-74
2021/03/24 08:43:48;;;;;;;28.77;18.17;;;20.60;34.50;;;;;;5067421;28;20474;-72
2021/03/24 08:46:35;;;;;;;26.50;17.43;;;20.60;34.60;;;;;;5073584;28;20421;-72
2021/03/24 08:49:08;;;;;;;28.10;19.33;;;20.80;34.20;;;;;;5070823;28;20426;-73
2021/03/24 08:51:58;;;;;;;27.40;17.33;;;20.80;33.80;;;;;;5072067;28;20985;-74
2021/03/24 08:54:55;;;;;;;31.70;19.67;;;20.30;34.10;;;;;;5073010;28;20454;-72
2021/03/24 08:57:47;;;;;;;30.80;19.37;;;20.40;34.60;;;;;;5056985;28;20420;-74
2021/03/24 09:00:44;;;;;;;33.63;19.20;;;20.70;33.80;;;;;;5074688;28;20424;-73
2021/03/24 09:03:28;;;;;;;31.47;19.37;;;21.00;33.10;;;;;;5060463;28;20505;-73
2021/03/24 09:06:12;;;;;;;34.40;19.70;;;20.40;33.90;;;;;;5063454;28;20447;-74
2021/03/24 09:08:49;;;;;;;27.77;18.70;;;20.30;34.50;;;;;;5074142;28;20439;-73
2021/03/24 09:11:26;;;;;;;32.33;20.77;;;20.70;34.00;;;;;;5050093;28;20817;-73
2021/03/24 09:14:07;;;;;;;29.83;18.50;;;20.80;33.80;;;;;;5074686;28;20437;-73
2021/03/24 09:16:47;;;;;;;26.93;18.63;;;21.10;33.40;;;;;;5076579;28;20414;-73
2021/03/24 09:19:47;;;;;;;28.60;20.07;;;21.10;33.70;;;;;;5060333;28;20510;-73
2021/03/24 09:22:39;;;;;;;34.80;20.80;;;21.30;33.10;;;;;;5066581;28;20430;-72
2021/03/24 09:25:47;;;;;;;26.47;18.73;;;21.60;32.90;;;;;;5050796;28;20445;-73
2021/03/24 09:28:31;;;;;;;28.97;19.53;;;21.70;32.70;;;;;;5035408;28;20540;-73
2021/03/24 09:31:12;;;;;;;38.00;19.80;;;21.90;32.10;;;;;;5064855;28;20433;-74
2021/03/24 09:33:46;;;;;;;39.23;21.93;;;21.80;32.30;;;;;;5070557;28;20458;-74
2021/03/24 09:36:38;;;;;;;27.80;19.03;;;21.70;32.50;;;;;;5074308;28;20423;-73
2021/03/24 09:39:34;;;;;;;33.93;20.97;;;21.90;32.40;;;;;;5072354;28;20428;-73
2021/03/24 09:42:01;;;;;;;36.13;22.60;;;21.90;32.20;;;;;;5073974;28;20437;-73
2021/03/24 09:44:37;;;;;;;36.27;21.87;;;22.00;32.10;;;;;;5074595;28;20419;-74
2021/03/24 09:47:22;;;;;;;35.23;21.60;;;21.90;32.40;;;;;;5067705;28;20448;-73
2021/03/24 09:49:57;;;;;;;34.70;21.13;;;22.10;32.30;;;;;;5067702;28;20435;-73
2021/03/24 09:52:33;;;;;;;34.57;21.70;;;21.90;32.40;;;;;;5071526;28;20422;-74
2021/03/24 09:55:34;;;;;;;34.13;20.60;;;21.80;32.10;;;;;;5074694;28;20409;-72
2021/03/24 09:58:22;;;;;;;32.17;20.90;;;21.50;32.70;;;;;;5056379;28;20442;-72
2021/03/24 10:01:14;;;;;;;36.27;22.93;;;21.30;32.80;;;;;;5073433;28;20516;-74
2021/03/24 10:04:01;;;;;;;33.40;20.93;;;20.50;33.90;;;;;;5062236;28;20438;-74
2021/03/24 10:06:56;;;;;;;34.93;22.07;;;19.30;34.60;;;;;;5064181;28;20674;-75
2021/03/24 10:09:27;;;;;;;34.40;22.20;;;18.60;36.10;;;;;;5056136;28;20421;-74
2021/03/24 10:12:05;;;;;;;36.07;21.63;;;18.10;37.20;;;;;;5068051;28;20423;-73
2021/03/24 10:15:08;;;;;;;40.93;22.40;;;17.70;37.50;;;;;;5058786;28;20447;-74
2021/03/24 10:17:55;;;;;;;38.87;22.87;;;17.50;38.30;;;;;;5073997;28;20429;-74
2021/03/24 10:20:32;;;;;;;38.20;20.67;;;17.30;38.70;;;;;;5071315;28;20443;-74
2021/03/24 10:23:27;;;;;;;44.60;25.93;;;17.30;38.20;;;;;;5072972;28;20473;-74
2021/03/24 10:26:20;;;;;;;34.97;20.17;;;17.30;38.20;;;;;;5071872;28;20966;-74
2021/03/24 10:28:59;;;;;;;38.80;21.37;;;17.60;38.40;;;;;;5052732;28;20411;-74
2021/03/24 10:31:36;;;;;;;36.97;20.97;;;17.80;38.20;;;;;;5065079;28;20469;-73
2021/03/24 10:34:13;;;;;;;33.90;21.30;;;17.80;37.50;;;;;;5071339;28;20434;-73
2021/03/24 10:37:00;;;;;;;37.80;22.13;;;17.60;38.00;;;;;;5070468;28;20423;-73
2021/03/24 10:39:34;;;;;;;40.53;22.20;;;17.20;38.00;;;;;;5071552;28;20391;-73
2021/03/24 10:42:08;;;;;;;38.97;20.97;;;16.90;39.00;;;;;;5070861;28;20419;-74
2021/03/24 10:45:20;;;;;;;38.03;21.93;;;16.70;39.10;;;;;;5066641;28;20458;-73
2021/03/24 10:48:08;;;;;;;46.87;21.80;;;16.60;39.70;;;;;;5067762;28;20837;-74
2021/03/24 10:50:39;;;;;;;34.83;19.80;;;16.30;39.90;;;;;;5068542;28;20518;-75
2021/03/24 10:53:13;;;;;;;42.63;22.03;;;16.20;40.40;;;;;;5069408;28;20462;-74
2021/03/24 10:55:42;;;;;;;41.37;21.90;;;16.10;40.70;;;;;;5072480;28;20413;-74
2021/03/24 10:58:32;;;;;;;46.60;21.80;;;16.00;41.00;;;;;;5071901;28;20415;-74
2021/03/24 11:01:24;;;;;;;40.10;21.23;;;16.10;40.80;;;;;;5074197;28;20411;-75
2021/03/24 11:04:11;;;;;;;54.83;24.50;;;16.10;40.80;;;;;;5069762;28;20444;-74
2021/03/24 11:07:14;;;;;;;60.30;27.50;;;16.10;40.90;;;;;;5070420;28;20489;-74
2021/03/24 11:09:47;;;;;;;45.97;23.30;;;16.00;40.80;;;;;;5063263;28;20432;-75
2021/03/24 11:12:16;;;;;;;46.80;25.17;;;16.00;41.10;;;;;;5056400;28;20413;-76
2021/03/24 11:15:04;;;;;;;48.70;23.53;;;16.10;41.10;;;;;;5057395;28;20771;-72
2021/03/24 11:17:36;;;;;;;47.10;22.20;;;16.10;41.20;;;;;;5075377;28;20423;-74
2021/03/24 11:20:12;;;;;;;43.27;22.13;;;16.00;41.10;;;;;;5058534;28;20407;-74
2021/03/24 11:22:56;;;;;;;47.50;24.53;;;16.00;41.40;;;;;;5065790;28;20424;-74
2021/03/24 11:25:43;;;;;;;48.97;23.97;;;16.00;41.60;;;;;;5066961;28;20417;-73
2021/03/24 11:28:31;;;;;;;47.47;24.67;;;16.00;41.40;;;;;;5073910;28;20536;-75
2021/03/24 11:31:05;;;;;;;52.40;24.57;;;16.10;41.30;;;;;;5067352;28;20435;-74
2021/03/24 11:33:52;;;;;;;42.67;22.67;;;16.10;41.50;;;;;;5058215;28;20431;-73
2021/03/24 11:36:28;;;;;;;49.03;24.83;;;16.10;41.50;;;;;;5067745;28;20421;-74
2021/03/24 11:39:15;;;;;;;44.27;20.30;;;16.10;41.30;;;;;;5063284;28;20511;-73
2021/03/24 11:41:43;;;;;;;41.83;23.67;;;16.10;41.50;;;;;;5060846;28;20411;-74
2021/03/24 11:44:13;;;;;;;46.97;23.23;;;16.10;41.50;;;;;;5074628;28;20438;-73
2021/03/24 11:46:57;;;;;;;48.17;23.97;;;16.10;41.80;;;;;;5074814;28;20474;-74
2021/03/24 11:49:53;;;;;;;53.17;24.67;;;16.20;41.90;;;;;;5072726;28;20752;-74
2021/03/24 11:52:55;;;;;;;48.37;23.30;;;16.10;41.50;;;;;;5055735;28;20506;-73
2021/03/24 11:55:39;;;;;;;43.53;22.80;;;16.10;41.90;;;;;;5060465;28;20426;-73
2021/03/24 11:58:25;;;;;;;38.60;20.93;;;16.20;41.30;;;;;;5071139;28;20411;-76
2021/03/24 12:01:03;;;;;;;55.50;23.47;;;16.10;41.30;;;;;;5074358;28;20411;-73
2021/03/24 12:03:52;;;;;;;45.93;22.53;;;16.10;41.30;;;;;;5073365;28;20792;-74
2021/03/24 12:06:44;;;;;;;41.10;21.60;;;16.00;41.40;;;;;;5056526;28;20424;-75
2021/03/24 12:09:15;;;;;;;44.37;20.70;;;16.20;41.60;;;;;;5052615;28;20742;-74
2021/03/24 12:11:41;;;;;;;42.33;22.10;;;16.20;41.30;;;;;;5070276;28;20461;-74
2021/03/24 12:14:26;;;;;;;38.33;22.13;;;16.20;41.20;;;;;;5074867;28;20431;-75
2021/03/24 12:16:56;;;;;;;51.30;23.57;;;16.20;41.40;;;;;;5066459;28;20228;-77
2021/03/24 12:19:30;;;;;;;43.00;20.30;;;16.30;41.80;;;;;;5055130;28;20429;-79
2021/03/24 12:22:18;;;;;;;42.43;21.40;;;16.30;41.00;;;;;;5044590;28;20804;-79
2021/03/24 12:24:46;;;;;;;43.80;21.57;;;16.30;40.90;;;;;;5046929;28;20501;-78
2021/03/24 12:27:28;;;;;;;45.60;21.73;;;16.30;41.00;;;;;;5047811;28;20450;-78
2021/03/24 12:30:23;;;;;;;47.73;23.50;;;16.40;40.80;;;;;;5046630;28;20409;-77
2021/03/24 12:32:50;;;;;;;49.43;22.87;;;16.40;40.90;;;;;;5047759;28;20432;-77
2021/03/24 12:35:24;;;;;;;38.13;21.90;;;16.40;41.00;;;;;;5056183;28;20408;-77
2021/03/24 12:37:55;;;;;;;41.63;21.80;;;16.40;40.70;;;;;;5043596;28;20428;-77
2021/03/24 12:40:23;;;;;;;40.20;20.77;;;16.40;40.50;;;;;;5044451;28;20761;-78
2021/03/24 12:42:51;;;;;;;44.60;20.83;;;16.40;40.50;;;;;;5039256;28;20762;-77
2021/03/24 12:45:37;;;;;;;42.43;21.50;;;16.40;40.70;;;;;;5057073;28;20409;-79
2021/03/24 12:48:10;;;;;;;44.87;22.37;;;16.40;40.50;;;;;;5047866;28;20490;-77
2021/03/24 12:51:03;;;;;;;44.90;23.50;;;16.50;40.60;;;;;;5036444;28;20756;-78
2021/03/24 12:53:36;;;;;;;42.27;21.53;;;16.60;40.40;;;;;;5053464;28;20449;-77
2021/03/24 12:56:40;;;;;;;48.77;21.80;;;16.70;40.40;;;;;;5054656;28;20426;-78
2021/03/24 12:59:37;;;;;;;46.67;19.50;;;16.80;39.80;;;;;;5044417;28;20423;-79
2021/03/24 13:02:40;;;;;;;38.63;17.50;;;16.80;40.10;;;;;;5054703;28;20427;-77
2021/03/24 13:05:12;;;;;;;38.77;18.80;;;16.90;40.00;;;;;;5055064;28;20409;-77
2021/03/24 13:08:04;;;;;;;37.00;18.63;;;16.90;39.90;;;;;;5035060;28;20539;-77
2021/03/24 13:10:44;;;;;;;33.57;17.50;;;16.80;39.20;;;;;;5051884;28;20499;-77
2021/03/24 13:13:15;;;;;;;37.70;18.50;;;16.90;39.50;;;;;;5048514;28;20456;-79
2021/03/24 13:15:50;;;;;;;38.63;18.97;;;16.90;39.50;;;;;;5045429;28;20409;-76
2021/03/24 13:18:32;;;;;;;35.37;17.67;;;16.90;39.20;;;;;;5050527;28;20492;-77
2021/03/24 13:21:03;;;;;;;38.67;18.47;;;17.00;39.30;;;;;;5035958;28;20431;-77
2021/03/24 13:23:45;;;;;;;39.40;17.60;;;16.90;39.10;;;;;;5050764;28;20794;-77
2021/03/24 13:26:31;;;;;;;38.20;17.30;;;16.90;39.20;;;;;;5036669;28;20503;-78
2021/03/24 13:29:31;;;;;;;34.60;17.37;;;16.90;39.20;;;;;;5039116;28;20949;-77
2021/03/24 13:32:06;;;;;;;36.73;17.30;;;17.00;39.20;;;;;;5036797;28;20409;-77